sensor_id;sensor_type;location;lat;lon;timestamp;temperature;humidity
63047;DHT22;62025;39.238;9.126;2022-08-01T00:01:14;29.00;61.50
63047;DHT22;62025;39.238;9.126;2022-08-01T00:03:40;29.00;61.00
63047;DHT22;62025;39.238;9.126;2022-08-01T00:06:06;29.10;61.10
63047;DHT22;62025;39.238;9.126;2022-08-01T00:08:33;29.00;61.20
63047;DHT22;62025;39.238;9.126;2022-08-01T00:10:59;29.00;61.20
63047;DHT22;62025;39.238;9.126;2022-08-01T00:13:25;29.00;61.30
63047;DHT22;62025;39.238;9.126;2022-08-01T00:15:51;29.00;61.30
63047;DHT22;62025;39.238;9.126;2022-08-01T00:18:17;29.10;60.90
63047;DHT22;62025;39.238;9.126;2022-08-01T00:20:43;29.00;61.00
63047;DHT22;62025;39.238;9.126;2022-08-01T00:23:09;29.00;61.30
63047;DHT22;62025;39.238;9.126;2022-08-01T00:25:35;28.90;61.40
63047;DHT22;62025;39.238;9.126;2022-08-01T00:28:01;29.00;61.30
63047;DHT22;62025;39.238;9.126;2022-08-01T00:30:27;28.90;61.10
63047;DHT22;62025;39.238;9.126;2022-08-01T00:32:53;28.90;61.20
63047;DHT22;62025;39.238;9.126;2022-08-01T00:35:19;28.90;61.40
63047;DHT22;62025;39.238;9.126;2022-08-01T00:37:45;28.90;61.40
63047;DHT22;62025;39.238;9.126;2022-08-01T00:40:11;28.90;61.50
63047;DHT22;62025;39.238;9.126;2022-08-01T00:42:38;28.90;61.70
63047;DHT22;62025;39.238;9.126;2022-08-01T00:45:04;28.90;61.60
63047;DHT22;62025;39.238;9.126;2022-08-01T00:47:30;28.90;61.70
63047;DHT22;62025;39.238;9.126;2022-08-01T00:49:56;28.80;62.00
63047;DHT22;62025;39.238;9.126;2022-08-01T00:52:23;28.80;62.10
63047;DHT22;62025;39.238;9.126;2022-08-01T00:54:49;28.80;61.90
63047;DHT22;62025;39.238;9.126;2022-08-01T00:57:15;28.80;61.80
63047;DHT22;62025;39.238;9.126;2022-08-01T00:59:41;28.90;61.70
63047;DHT22;62025;39.238;9.126;2022-08-01T01:02:08;28.80;61.60
63047;DHT22;62025;39.238;9.126;2022-08-01T01:04:34;28.90;61.50
63047;DHT22;62025;39.238;9.126;2022-08-01T01:12:30;28.90;61.40
63047;DHT22;62025;39.238;9.126;2022-08-01T01:15:54;28.90;61.30
63047;DHT22;62025;39.238;9.126;2022-08-01T01:18:32;28.70;61.80
63047;DHT22;62025;39.238;9.126;2022-08-01T01:21:35;28.80;61.60
63047;DHT22;62025;39.238;9.126;2022-08-01T01:24:21;28.80;61.30
63047;DHT22;62025;39.238;9.126;2022-08-01T01:30:07;28.70;61.00
63047;DHT22;62025;39.238;9.126;2022-08-01T01:32:41;28.70;60.60
63047;DHT22;62025;39.238;9.126;2022-08-01T01:35:15;28.70;60.10
63047;DHT22;62025;39.238;9.126;2022-08-01T01:37:47;28.80;59.60
63047;DHT22;62025;39.238;9.126;2022-08-01T01:40:17;28.80;59.20
63047;DHT22;62025;39.238;9.126;2022-08-01T01:42:44;28.70;58.70
63047;DHT22;62025;39.238;9.126;2022-08-01T01:45:12;28.70;58.60
63047;DHT22;62025;39.238;9.126;2022-08-01T01:47:39;28.60;58.40
63047;DHT22;62025;39.238;9.126;2022-08-01T01:50:06;28.70;57.90
63047;DHT22;62025;39.238;9.126;2022-08-01T01:52:34;28.60;57.60
63047;DHT22;62025;39.238;9.126;2022-08-01T01:55:04;28.60;57.60
63047;DHT22;62025;39.238;9.126;2022-08-01T01:57:32;28.50;57.40
63047;DHT22;62025;39.238;9.126;2022-08-01T02:00:02;28.50;57.30
63047;DHT22;62025;39.238;9.126;2022-08-01T02:02:30;28.50;57.10
63047;DHT22;62025;39.238;9.126;2022-08-01T02:04:57;28.50;56.60
63047;DHT22;62025;39.238;9.126;2022-08-01T02:07:25;28.50;56.60
63047;DHT22;62025;39.238;9.126;2022-08-01T02:09:52;28.50;56.20
63047;DHT22;62025;39.238;9.126;2022-08-01T02:12:20;28.40;56.10
63047;DHT22;62025;39.238;9.126;2022-08-01T02:14:48;28.50;55.90
63047;DHT22;62025;39.238;9.126;2022-08-01T02:17:17;28.50;55.70
63047;DHT22;62025;39.238;9.126;2022-08-01T02:19:45;28.40;55.60
63047;DHT22;62025;39.238;9.126;2022-08-01T02:22:16;28.40;55.60
63047;DHT22;62025;39.238;9.126;2022-08-01T02:25:22;28.40;55.50
63047;DHT22;62025;39.238;9.126;2022-08-01T02:28:41;28.40;55.50
63047;DHT22;62025;39.238;9.126;2022-08-01T02:31:30;28.30;55.60
63047;DHT22;62025;39.238;9.126;2022-08-01T02:34:02;28.40;55.30
63047;DHT22;62025;39.238;9.126;2022-08-01T02:36:33;28.40;55.20
63047;DHT22;62025;39.238;9.126;2022-08-01T02:39:07;28.40;55.00
63047;DHT22;62025;39.238;9.126;2022-08-01T02:41:39;28.40;54.90
63047;DHT22;62025;39.238;9.126;2022-08-01T02:44:10;28.40;54.60
63047;DHT22;62025;39.238;9.126;2022-08-01T02:46:54;28.40;54.20
63047;DHT22;62025;39.238;9.126;2022-08-01T02:49:24;28.40;53.90
63047;DHT22;62025;39.238;9.126;2022-08-01T02:51:53;28.30;53.90
63047;DHT22;62025;39.238;9.126;2022-08-01T02:54:21;28.30;54.00
63047;DHT22;62025;39.238;9.126;2022-08-01T02:56:48;28.30;54.00
63047;DHT22;62025;39.238;9.126;2022-08-01T02:59:18;28.40;54.00
63047;DHT22;62025;39.238;9.126;2022-08-01T03:01:46;28.40;53.70
63047;DHT22;62025;39.238;9.126;2022-08-01T03:04:12;28.40;53.80
63047;DHT22;62025;39.238;9.126;2022-08-01T03:06:40;28.30;53.80
63047;DHT22;62025;39.238;9.126;2022-08-01T03:09:08;28.30;54.00
63047;DHT22;62025;39.238;9.126;2022-08-01T03:11:36;28.40;53.90
63047;DHT22;62025;39.238;9.126;2022-08-01T03:14:06;28.30;53.90
63047;DHT22;62025;39.238;9.126;2022-08-01T03:16:36;28.30;54.20
63047;DHT22;62025;39.238;9.126;2022-08-01T03:19:05;28.30;54.30
63047;DHT22;62025;39.238;9.126;2022-08-01T03:21:33;28.20;54.50
63047;DHT22;62025;39.238;9.126;2022-08-01T03:24:01;28.10;54.70
63047;DHT22;62025;39.238;9.126;2022-08-01T03:26:33;28.10;54.60
63047;DHT22;62025;39.238;9.126;2022-08-01T03:29:14;28.10;54.80
63047;DHT22;62025;39.238;9.126;2022-08-01T03:31:44;28.10;54.60
63047;DHT22;62025;39.238;9.126;2022-08-01T03:34:11;28.20;54.50
63047;DHT22;62025;39.238;9.126;2022-08-01T03:36:51;28.20;54.40
63047;DHT22;62025;39.238;9.126;2022-08-01T03:39:25;28.20;54.50
63047;DHT22;62025;39.238;9.126;2022-08-01T03:41:59;28.20;55.00
63047;DHT22;62025;39.238;9.126;2022-08-01T03:44:32;28.20;55.20
63047;DHT22;62025;39.238;9.126;2022-08-01T03:47:09;28.10;55.50
63047;DHT22;62025;39.238;9.126;2022-08-01T03:49:41;28.20;55.30
63047;DHT22;62025;39.238;9.126;2022-08-01T03:52:09;28.20;55.40
63047;DHT22;62025;39.238;9.126;2022-08-01T03:54:41;28.10;55.30
63047;DHT22;62025;39.238;9.126;2022-08-01T03:57:10;28.20;55.00
63047;DHT22;62025;39.238;9.126;2022-08-01T03:59:37;28.10;55.00
63047;DHT22;62025;39.238;9.126;2022-08-01T04:02:04;28.00;55.00
63047;DHT22;62025;39.238;9.126;2022-08-01T04:04:32;28.00;55.10
63047;DHT22;62025;39.238;9.126;2022-08-01T04:06:58;28.00;55.00
63047;DHT22;62025;39.238;9.126;2022-08-01T04:09:30;28.00;54.90
63047;DHT22;62025;39.238;9.126;2022-08-01T04:11:58;27.90;55.00
63047;DHT22;62025;39.238;9.126;2022-08-01T04:14:27;28.00;54.90
63047;DHT22;62025;39.238;9.126;2022-08-01T04:16:54;27.90;55.10
63047;DHT22;62025;39.238;9.126;2022-08-01T04:19:20;27.80;55.60
63047;DHT22;62025;39.238;9.126;2022-08-01T04:21:46;27.80;55.90
63047;DHT22;62025;39.238;9.126;2022-08-01T04:24:17;27.70;56.50
63047;DHT22;62025;39.238;9.126;2022-08-01T04:26:45;27.70;56.80
63047;DHT22;62025;39.238;9.126;2022-08-01T04:29:12;27.60;57.50
63047;DHT22;62025;39.238;9.126;2022-08-01T04:31:43;27.70;57.50
63047;DHT22;62025;39.238;9.126;2022-08-01T04:34:14;27.80;57.50
63047;DHT22;62025;39.238;9.126;2022-08-01T04:36:44;27.70;57.80
63047;DHT22;62025;39.238;9.126;2022-08-01T04:39:12;27.70;57.80
63047;DHT22;62025;39.238;9.126;2022-08-01T04:41:40;27.70;57.90
63047;DHT22;62025;39.238;9.126;2022-08-01T04:44:07;27.80;57.90
63047;DHT22;62025;39.238;9.126;2022-08-01T04:46:33;27.90;57.80
63047;DHT22;62025;39.238;9.126;2022-08-01T04:49:00;27.70;58.00
63047;DHT22;62025;39.238;9.126;2022-08-01T04:51:26;27.70;58.00
63047;DHT22;62025;39.238;9.126;2022-08-01T04:53:53;27.50;58.40
63047;DHT22;62025;39.238;9.126;2022-08-01T04:56:20;27.60;58.30
63047;DHT22;62025;39.238;9.126;2022-08-01T04:58:46;27.70;57.90
63047;DHT22;62025;39.238;9.126;2022-08-01T05:01:13;27.70;57.80
63047;DHT22;62025;39.238;9.126;2022-08-01T05:03:39;27.70;58.00
63047;DHT22;62025;39.238;9.126;2022-08-01T05:06:06;27.80;57.60
63047;DHT22;62025;39.238;9.126;2022-08-01T05:08:32;27.70;57.60
63047;DHT22;62025;39.238;9.126;2022-08-01T05:10:58;27.80;57.30
63047;DHT22;62025;39.238;9.126;2022-08-01T05:13:25;27.80;57.00
63047;DHT22;62025;39.238;9.126;2022-08-01T05:15:51;27.90;56.60
63047;DHT22;62025;39.238;9.126;2022-08-01T05:18:18;28.00;56.20
63047;DHT22;62025;39.238;9.126;2022-08-01T05:20:44;28.00;55.90
63047;DHT22;62025;39.238;9.126;2022-08-01T05:23:10;28.00;55.90
63047;DHT22;62025;39.238;9.126;2022-08-01T05:25:36;28.10;55.70
63047;DHT22;62025;39.238;9.126;2022-08-01T05:28:04;28.10;55.50
63047;DHT22;62025;39.238;9.126;2022-08-01T05:30:30;28.10;55.40
63047;DHT22;62025;39.238;9.126;2022-08-01T05:32:56;28.20;55.20
63047;DHT22;62025;39.238;9.126;2022-08-01T05:35:22;28.30;54.90
63047;DHT22;62025;39.238;9.126;2022-08-01T05:37:48;28.40;54.80
63047;DHT22;62025;39.238;9.126;2022-08-01T05:40:14;28.40;54.50
63047;DHT22;62025;39.238;9.126;2022-08-01T05:42:40;28.40;54.30
63047;DHT22;62025;39.238;9.126;2022-08-01T05:45:06;28.40;54.10
63047;DHT22;62025;39.238;9.126;2022-08-01T05:47:33;28.50;53.80
63047;DHT22;62025;39.238;9.126;2022-08-01T05:49:59;28.50;53.60
63047;DHT22;62025;39.238;9.126;2022-08-01T05:52:25;28.50;53.20
63047;DHT22;62025;39.238;9.126;2022-08-01T05:54:51;28.60;52.60
63047;DHT22;62025;39.238;9.126;2022-08-01T05:57:17;28.70;52.20
63047;DHT22;62025;39.238;9.126;2022-08-01T05:59:43;28.70;52.10
63047;DHT22;62025;39.238;9.126;2022-08-01T06:02:09;28.70;52.00
63047;DHT22;62025;39.238;9.126;2022-08-01T06:04:35;28.80;52.00
63047;DHT22;62025;39.238;9.126;2022-08-01T06:07:01;28.90;51.60
63047;DHT22;62025;39.238;9.126;2022-08-01T06:09:27;28.90;51.20
63047;DHT22;62025;39.238;9.126;2022-08-01T06:11:53;28.90;51.60
63047;DHT22;62025;39.238;9.126;2022-08-01T06:14:19;29.00;51.40
63047;DHT22;62025;39.238;9.126;2022-08-01T06:16:45;29.10;51.10
63047;DHT22;62025;39.238;9.126;2022-08-01T06:19:11;29.20;51.00
63047;DHT22;62025;39.238;9.126;2022-08-01T06:21:37;29.20;51.10
63047;DHT22;62025;39.238;9.126;2022-08-01T06:24:04;29.30;51.00
63047;DHT22;62025;39.238;9.126;2022-08-01T06:26:30;29.30;50.50
63047;DHT22;62025;39.238;9.126;2022-08-01T06:28:57;29.30;50.30
63047;DHT22;62025;39.238;9.126;2022-08-01T06:31:23;29.00;51.10
63047;DHT22;62025;39.238;9.126;2022-08-01T06:33:49;29.00;51.40
63047;DHT22;62025;39.238;9.126;2022-08-01T06:36:15;29.00;51.70
63047;DHT22;62025;39.238;9.126;2022-08-01T06:38:41;29.00;52.00
63047;DHT22;62025;39.238;9.126;2022-08-01T06:41:07;28.90;52.70
63047;DHT22;62025;39.238;9.126;2022-08-01T06:43:33;29.00;52.70
63047;DHT22;62025;39.238;9.126;2022-08-01T06:45:59;29.00;53.20
63047;DHT22;62025;39.238;9.126;2022-08-01T06:48:25;29.10;53.20
63047;DHT22;62025;39.238;9.126;2022-08-01T06:50:52;29.00;53.30
63047;DHT22;62025;39.238;9.126;2022-08-01T06:53:36;29.00;53.70
63047;DHT22;62025;39.238;9.126;2022-08-01T06:56:04;28.90;54.00
63047;DHT22;62025;39.238;9.126;2022-08-01T06:58:30;29.10;53.90
63047;DHT22;62025;39.238;9.126;2022-08-01T07:00:57;29.10;53.70
63047;DHT22;62025;39.238;9.126;2022-08-01T07:03:23;29.10;53.80
63047;DHT22;62025;39.238;9.126;2022-08-01T07:05:49;29.00;53.90
63047;DHT22;62025;39.238;9.126;2022-08-01T07:08:15;29.10;53.60
63047;DHT22;62025;39.238;9.126;2022-08-01T07:10:41;29.00;53.60
63047;DHT22;62025;39.238;9.126;2022-08-01T07:13:07;29.10;53.50
63047;DHT22;62025;39.238;9.126;2022-08-01T07:15:33;29.30;53.00
63047;DHT22;62025;39.238;9.126;2022-08-01T07:17:59;29.30;53.00
63047;DHT22;62025;39.238;9.126;2022-08-01T07:20:29;29.40;53.20
63047;DHT22;62025;39.238;9.126;2022-08-01T07:22:55;29.30;53.30
63047;DHT22;62025;39.238;9.126;2022-08-01T07:25:21;29.60;53.40
63047;DHT22;62025;39.238;9.126;2022-08-01T07:27:47;30.20;52.30
63047;DHT22;62025;39.238;9.126;2022-08-01T07:30:13;30.50;51.90
63047;DHT22;62025;39.238;9.126;2022-08-01T07:32:39;30.40;51.90
63047;DHT22;62025;39.238;9.126;2022-08-01T07:35:06;30.50;51.80
63047;DHT22;62025;39.238;9.126;2022-08-01T07:37:32;30.90;50.50
63047;DHT22;62025;39.238;9.126;2022-08-01T07:39:58;30.90;50.10
63047;DHT22;62025;39.238;9.126;2022-08-01T07:42:24;31.10;49.70
63047;DHT22;62025;39.238;9.126;2022-08-01T07:44:50;31.20;49.60
63047;DHT22;62025;39.238;9.126;2022-08-01T07:47:26;31.20;49.00
63047;DHT22;62025;39.238;9.126;2022-08-01T07:49:58;31.60;47.90
63047;DHT22;62025;39.238;9.126;2022-08-01T07:52:25;31.80;47.10
63047;DHT22;62025;39.238;9.126;2022-08-01T07:54:52;31.60;47.30
63047;DHT22;62025;39.238;9.126;2022-08-01T07:57:18;31.90;46.40
63047;DHT22;62025;39.238;9.126;2022-08-01T07:59:45;32.30;45.30
63047;DHT22;62025;39.238;9.126;2022-08-01T08:02:10;32.00;46.00
63047;DHT22;62025;39.238;9.126;2022-08-01T08:04:37;32.10;46.30
63047;DHT22;62025;39.238;9.126;2022-08-01T08:07:03;32.40;45.60
63047;DHT22;62025;39.238;9.126;2022-08-01T08:09:29;32.30;45.50
63047;DHT22;62025;39.238;9.126;2022-08-01T08:11:55;32.50;45.40
63047;DHT22;62025;39.238;9.126;2022-08-01T08:14:21;32.20;45.80
63047;DHT22;62025;39.238;9.126;2022-08-01T08:16:48;32.60;45.10
63047;DHT22;62025;39.238;9.126;2022-08-01T08:19:14;32.40;45.50
63047;DHT22;62025;39.238;9.126;2022-08-01T08:21:40;32.40;46.00
63047;DHT22;62025;39.238;9.126;2022-08-01T08:24:08;32.50;45.90
63047;DHT22;62025;39.238;9.126;2022-08-01T08:26:55;32.40;46.60
63047;DHT22;62025;39.238;9.126;2022-08-01T08:29:26;32.90;46.20
63047;DHT22;62025;39.238;9.126;2022-08-01T08:31:53;32.20;47.80
63047;DHT22;62025;39.238;9.126;2022-08-01T08:34:24;31.80;49.10
63047;DHT22;62025;39.238;9.126;2022-08-01T08:36:50;32.50;47.80
63047;DHT22;62025;39.238;9.126;2022-08-01T08:39:17;32.60;47.90
63047;DHT22;62025;39.238;9.126;2022-08-01T08:41:44;31.90;49.00
63047;DHT22;62025;39.238;9.126;2022-08-01T08:44:10;31.70;49.90
63047;DHT22;62025;39.238;9.126;2022-08-01T08:46:45;32.20;49.10
63047;DHT22;62025;39.238;9.126;2022-08-01T08:49:25;32.70;48.10
63047;DHT22;62025;39.238;9.126;2022-08-01T08:51:53;32.30;47.80
63047;DHT22;62025;39.238;9.126;2022-08-01T08:54:24;32.00;48.50
63047;DHT22;62025;39.238;9.126;2022-08-01T08:56:56;31.70;49.50
63047;DHT22;62025;39.238;9.126;2022-08-01T08:59:24;32.10;49.10
63047;DHT22;62025;39.238;9.126;2022-08-01T09:01:50;31.70;50.30
63047;DHT22;62025;39.238;9.126;2022-08-01T09:04:16;31.60;50.60
63047;DHT22;62025;39.238;9.126;2022-08-01T09:06:43;31.40;52.10
63047;DHT22;62025;39.238;9.126;2022-08-01T09:09:09;31.60;52.10
63047;DHT22;62025;39.238;9.126;2022-08-01T09:11:37;31.60;52.70
63047;DHT22;62025;39.238;9.126;2022-08-01T09:14:13;31.70;53.10
63047;DHT22;62025;39.238;9.126;2022-08-01T09:17:07;31.70;53.70
63047;DHT22;62025;39.238;9.126;2022-08-01T09:22:11;31.40;54.80
63047;DHT22;62025;39.238;9.126;2022-08-01T09:24:40;31.40;55.60
63047;DHT22;62025;39.238;9.126;2022-08-01T09:27:20;31.40;55.90
63047;DHT22;62025;39.238;9.126;2022-08-01T09:29:51;31.40;56.40
63047;DHT22;62025;39.238;9.126;2022-08-01T09:32:19;31.50;56.60
63047;DHT22;62025;39.238;9.126;2022-08-01T09:34:45;31.00;58.10
63047;DHT22;62025;39.238;9.126;2022-08-01T09:37:12;31.20;58.30
63047;DHT22;62025;39.238;9.126;2022-08-01T09:39:43;31.50;57.60
63047;DHT22;62025;39.238;9.126;2022-08-01T09:42:25;31.40;57.80
63047;DHT22;62025;39.238;9.126;2022-08-01T09:44:52;31.20;58.10
63047;DHT22;62025;39.238;9.126;2022-08-01T09:47:20;31.30;58.40
63047;DHT22;62025;39.238;9.126;2022-08-01T09:49:53;31.50;57.70
63047;DHT22;62025;39.238;9.126;2022-08-01T09:52:22;31.80;55.80
63047;DHT22;62025;39.238;9.126;2022-08-01T09:55:01;31.50;56.10
63047;DHT22;62025;39.238;9.126;2022-08-01T09:57:29;31.50;55.40
63047;DHT22;62025;39.238;9.126;2022-08-01T09:59:57;31.40;54.80
63047;DHT22;62025;39.238;9.126;2022-08-01T10:02:38;31.40;55.00
63047;DHT22;62025;39.238;9.126;2022-08-01T10:05:08;31.40;54.70
63047;DHT22;62025;39.238;9.126;2022-08-01T10:07:55;31.50;54.50
63047;DHT22;62025;39.238;9.126;2022-08-01T10:10:22;31.50;54.30
63047;DHT22;62025;39.238;9.126;2022-08-01T10:12:51;31.50;54.60
63047;DHT22;62025;39.238;9.126;2022-08-01T10:15:19;31.30;55.40
63047;DHT22;62025;39.238;9.126;2022-08-01T10:17:57;31.20;54.60
63047;DHT22;62025;39.238;9.126;2022-08-01T10:20:29;31.20;54.50
63047;DHT22;62025;39.238;9.126;2022-08-01T10:23:02;31.30;55.30
63047;DHT22;62025;39.238;9.126;2022-08-01T10:25:35;31.10;55.60
63047;DHT22;62025;39.238;9.126;2022-08-01T10:28:15;31.20;55.90
63047;DHT22;62025;39.238;9.126;2022-08-01T10:30:43;31.20;55.70
63047;DHT22;62025;39.238;9.126;2022-08-01T10:33:11;31.40;56.50
63047;DHT22;62025;39.238;9.126;2022-08-01T10:35:38;31.10;56.90
63047;DHT22;62025;39.238;9.126;2022-08-01T10:38:06;31.20;56.30
63047;DHT22;62025;39.238;9.126;2022-08-01T10:40:33;31.50;54.70
63047;DHT22;62025;39.238;9.126;2022-08-01T10:42:59;31.10;55.40
63047;DHT22;62025;39.238;9.126;2022-08-01T10:45:26;30.90;57.30
63047;DHT22;62025;39.238;9.126;2022-08-01T10:48:07;31.00;57.30
63047;DHT22;62025;39.238;9.126;2022-08-01T10:50:42;31.10;57.20
63047;DHT22;62025;39.238;9.126;2022-08-01T10:53:17;31.20;57.10
63047;DHT22;62025;39.238;9.126;2022-08-01T10:58:13;30.80;58.50
63047;DHT22;62025;39.238;9.126;2022-08-01T11:00:40;30.70;58.70
63047;DHT22;62025;39.238;9.126;2022-08-01T11:03:06;31.00;57.60
63047;DHT22;62025;39.238;9.126;2022-08-01T11:05:34;30.90;56.40
63047;DHT22;62025;39.238;9.126;2022-08-01T11:08:10;30.50;57.00
63047;DHT22;62025;39.238;9.126;2022-08-01T11:10:48;30.60;58.70
63047;DHT22;62025;39.238;9.126;2022-08-01T11:13:15;30.50;58.70
63047;DHT22;62025;39.238;9.126;2022-08-01T11:16:35;30.90;58.30
63047;DHT22;62025;39.238;9.126;2022-08-01T11:19:04;30.80;59.00
63047;DHT22;62025;39.238;9.126;2022-08-01T11:22:05;30.70;59.80
63047;DHT22;62025;39.238;9.126;2022-08-01T11:27:32;30.80;59.10
63047;DHT22;62025;39.238;9.126;2022-08-01T11:35:19;30.30;61.20
63047;DHT22;62025;39.238;9.126;2022-08-01T11:37:47;30.40;60.50
63047;DHT22;62025;39.238;9.126;2022-08-01T11:40:24;30.30;60.80
63047;DHT22;62025;39.238;9.126;2022-08-01T11:45:53;30.10;62.00
63047;DHT22;62025;39.238;9.126;2022-08-01T11:48:23;30.60;60.80
63047;DHT22;62025;39.238;9.126;2022-08-01T11:50:57;30.70;60.20
63047;DHT22;62025;39.238;9.126;2022-08-01T12:05:43;30.90;60.30
63047;DHT22;62025;39.238;9.126;2022-08-01T12:08:10;30.90;60.10
63047;DHT22;62025;39.238;9.126;2022-08-01T12:10:36;31.00;60.10
63047;DHT22;62025;39.238;9.126;2022-08-01T12:13:05;31.10;59.40
63047;DHT22;62025;39.238;9.126;2022-08-01T12:15:37;31.00;59.70
63047;DHT22;62025;39.238;9.126;2022-08-01T12:18:05;31.00;58.20
63047;DHT22;62025;39.238;9.126;2022-08-01T12:20:37;30.80;59.60
63047;DHT22;62025;39.238;9.126;2022-08-01T12:23:07;31.00;59.70
63047;DHT22;62025;39.238;9.126;2022-08-01T12:25:35;31.10;59.50
63047;DHT22;62025;39.238;9.126;2022-08-01T12:28:04;31.30;58.40
63047;DHT22;62025;39.238;9.126;2022-08-01T12:30:31;30.90;59.30
63047;DHT22;62025;39.238;9.126;2022-08-01T12:33:03;30.80;59.50
63047;DHT22;62025;39.238;9.126;2022-08-01T12:35:31;30.80;60.10
63047;DHT22;62025;39.238;9.126;2022-08-01T12:37:59;31.10;59.50
63047;DHT22;62025;39.238;9.126;2022-08-01T12:40:32;31.00;59.20
63047;DHT22;62025;39.238;9.126;2022-08-01T12:43:07;31.10;58.40
63047;DHT22;62025;39.238;9.126;2022-08-01T12:48:13;30.80;59.20
63047;DHT22;62025;39.238;9.126;2022-08-01T12:50:45;31.00;58.60
63047;DHT22;62025;39.238;9.126;2022-08-01T12:53:13;31.00;58.20
63047;DHT22;62025;39.238;9.126;2022-08-01T12:55:48;30.90;58.30
63047;DHT22;62025;39.238;9.126;2022-08-01T12:58:17;31.00;58.30
63047;DHT22;62025;39.238;9.126;2022-08-01T13:00:46;30.80;59.30
63047;DHT22;62025;39.238;9.126;2022-08-01T13:03:15;31.10;58.10
63047;DHT22;62025;39.238;9.126;2022-08-01T13:05:56;31.00;57.90
63047;DHT22;62025;39.238;9.126;2022-08-01T13:08:30;31.00;57.90
63047;DHT22;62025;39.238;9.126;2022-08-01T13:13:50;30.70;59.00
63047;DHT22;62025;39.238;9.126;2022-08-01T13:16:19;30.50;59.30
63047;DHT22;62025;39.238;9.126;2022-08-01T13:18:54;30.70;59.50
63047;DHT22;62025;39.238;9.126;2022-08-01T13:21:24;30.70;59.50
63047;DHT22;62025;39.238;9.126;2022-08-01T13:24:10;30.60;59.50
63047;DHT22;62025;39.238;9.126;2022-08-01T13:29:11;30.50;59.20
63047;DHT22;62025;39.238;9.126;2022-08-01T13:31:39;30.40;59.50
63047;DHT22;62025;39.238;9.126;2022-08-01T13:34:06;30.50;59.40
63047;DHT22;62025;39.238;9.126;2022-08-01T13:36:34;30.60;59.30
63047;DHT22;62025;39.238;9.126;2022-08-01T13:39:01;30.70;59.00
63047;DHT22;62025;39.238;9.126;2022-08-01T13:41:46;30.80;59.00
63047;DHT22;62025;39.238;9.126;2022-08-01T13:44:13;30.70;58.70
63047;DHT22;62025;39.238;9.126;2022-08-01T13:46:41;30.80;59.00
63047;DHT22;62025;39.238;9.126;2022-08-01T13:49:10;30.70;58.90
63047;DHT22;62025;39.238;9.126;2022-08-01T13:51:38;30.70;59.10
63047;DHT22;62025;39.238;9.126;2022-08-01T13:54:04;30.40;59.90
63047;DHT22;62025;39.238;9.126;2022-08-01T13:56:31;30.50;59.10
63047;DHT22;62025;39.238;9.126;2022-08-01T13:58:58;30.40;60.10
63047;DHT22;62025;39.238;9.126;2022-08-01T14:01:24;30.60;59.30
63047;DHT22;62025;39.238;9.126;2022-08-01T14:03:51;30.50;59.60
63047;DHT22;62025;39.238;9.126;2022-08-01T14:06:18;30.20;60.30
63047;DHT22;62025;39.238;9.126;2022-08-01T14:08:48;30.40;60.20
63047;DHT22;62025;39.238;9.126;2022-08-01T14:11:14;30.70;59.40
63047;DHT22;62025;39.238;9.126;2022-08-01T14:13:41;30.50;59.60
63047;DHT22;62025;39.238;9.126;2022-08-01T14:16:07;30.40;60.10
63047;DHT22;62025;39.238;9.126;2022-08-01T14:18:33;30.30;60.50
63047;DHT22;62025;39.238;9.126;2022-08-01T14:20:59;30.10;61.20
63047;DHT22;62025;39.238;9.126;2022-08-01T14:23:26;30.10;61.10
63047;DHT22;62025;39.238;9.126;2022-08-01T14:25:52;30.10;61.10
63047;DHT22;62025;39.238;9.126;2022-08-01T14:28:19;30.00;61.50
63047;DHT22;62025;39.238;9.126;2022-08-01T14:30:45;30.20;61.00
63047;DHT22;62025;39.238;9.126;2022-08-01T14:33:12;30.20;61.20
63047;DHT22;62025;39.238;9.126;2022-08-01T14:35:39;30.20;62.20
63047;DHT22;62025;39.238;9.126;2022-08-01T14:38:06;30.30;62.70
63047;DHT22;62025;39.238;9.126;2022-08-01T14:40:33;30.40;63.80
63047;DHT22;62025;39.238;9.126;2022-08-01T14:43:00;30.40;65.00
63047;DHT22;62025;39.238;9.126;2022-08-01T14:45:27;30.50;65.10
63047;DHT22;62025;39.238;9.126;2022-08-01T14:47:53;30.40;65.30
63047;DHT22;62025;39.238;9.126;2022-08-01T14:50:20;30.60;64.80
63047;DHT22;62025;39.238;9.126;2022-08-01T14:52:46;30.20;65.50
63047;DHT22;62025;39.238;9.126;2022-08-01T14:55:13;30.20;66.50
63047;DHT22;62025;39.238;9.126;2022-08-01T14:57:39;30.20;66.80
63047;DHT22;62025;39.238;9.126;2022-08-01T15:00:08;30.30;65.90
63047;DHT22;62025;39.238;9.126;2022-08-01T15:02:41;30.40;65.40
63047;DHT22;62025;39.238;9.126;2022-08-01T15:05:08;30.50;64.60
63047;DHT22;62025;39.238;9.126;2022-08-01T15:07:36;30.40;65.10
63047;DHT22;62025;39.238;9.126;2022-08-01T15:10:04;30.40;65.40
63047;DHT22;62025;39.238;9.126;2022-08-01T15:12:31;30.50;65.10
63047;DHT22;62025;39.238;9.126;2022-08-01T15:14:57;30.50;65.10
63047;DHT22;62025;39.238;9.126;2022-08-01T15:17:25;30.50;64.90
63047;DHT22;62025;39.238;9.126;2022-08-01T15:20:01;30.40;65.30
63047;DHT22;62025;39.238;9.126;2022-08-01T15:22:29;30.30;65.60
63047;DHT22;62025;39.238;9.126;2022-08-01T15:24:57;30.20;65.60
63047;DHT22;62025;39.238;9.126;2022-08-01T15:27:25;30.40;64.90
63047;DHT22;62025;39.238;9.126;2022-08-01T15:29:53;30.50;64.60
63047;DHT22;62025;39.238;9.126;2022-08-01T15:32:20;30.40;64.80
63047;DHT22;62025;39.238;9.126;2022-08-01T15:34:46;30.30;65.30
63047;DHT22;62025;39.238;9.126;2022-08-01T15:37:13;30.40;64.60
63047;DHT22;62025;39.238;9.126;2022-08-01T15:39:40;30.40;64.60
63047;DHT22;62025;39.238;9.126;2022-08-01T15:42:12;30.30;65.10
63047;DHT22;62025;39.238;9.126;2022-08-01T15:44:39;30.20;64.90
63047;DHT22;62025;39.238;9.126;2022-08-01T15:47:06;30.30;64.70
63047;DHT22;62025;39.238;9.126;2022-08-01T15:49:33;30.20;65.00
63047;DHT22;62025;39.238;9.126;2022-08-01T15:52:02;30.30;64.60
63047;DHT22;62025;39.238;9.126;2022-08-01T15:54:29;30.30;64.70
63047;DHT22;62025;39.238;9.126;2022-08-01T15:56:55;30.30;64.60
63047;DHT22;62025;39.238;9.126;2022-08-01T15:59:21;30.40;64.40
63047;DHT22;62025;39.238;9.126;2022-08-01T16:01:48;30.40;64.40
63047;DHT22;62025;39.238;9.126;2022-08-01T16:04:15;30.40;63.90
63047;DHT22;62025;39.238;9.126;2022-08-01T16:06:42;30.40;64.30
63047;DHT22;62025;39.238;9.126;2022-08-01T16:09:08;30.10;65.00
63047;DHT22;62025;39.238;9.126;2022-08-01T16:11:34;30.20;64.50
63047;DHT22;62025;39.238;9.126;2022-08-01T16:14:00;30.20;64.90
63047;DHT22;62025;39.238;9.126;2022-08-01T16:16:27;30.00;65.40
63047;DHT22;62025;39.238;9.126;2022-08-01T16:18:53;30.00;65.10
63047;DHT22;62025;39.238;9.126;2022-08-01T16:21:20;30.00;65.20
63047;DHT22;62025;39.238;9.126;2022-08-01T16:23:49;29.90;65.30
63047;DHT22;62025;39.238;9.126;2022-08-01T16:26:16;29.90;65.70
63047;DHT22;62025;39.238;9.126;2022-08-01T16:28:43;29.80;65.90